Atlantic Mine, Michigan
Current Conditions -  °F | °C
As of 12:53 AM on Wednesday 28 Jan 2015 (Local Time) from KCMX Reporting Station
Overcast Overcast  
Wind Chill: -8°   Ceiling: 1700
Heat Index: -4°   Visibility: 10mi
Dew Point: -8°   Wind: 5mph
Humidity: 77%   Direction: 200°SSW
Pressure: 30.14"   Gusts: NA
Location:  47.1°N, 88.63°W
Report Text: KCMX 280553Z AUTO 20004KT 10SM OVC017 M04/M08 A3014 RMK AO2 SLP225 T10441078 11039 21044 58003
Loading
Personal Weather Stations






























Interactive Weather Map New forecast layout! Learn more

10-Day Weather Forecast

Advertisements
Track Severe Weather on mobile